irresistivel.com.br alexa rank chart, irresistivel.com.br alexa rank daily changes

irresistivel.com.br alexa rank chart, irresistivel.com.br alexa rank daily changes

irresistivel.com.br
Actual rank:
228 820

RANK HISTORY

Date Rank Diff
2017/12/16 228 820 +18 757
2017/12/15 210 063 +7 615
2017/12/14 202 448 -1 744
2017/12/13 204 192 +1 901
2017/12/12 202 291 +10 551
2017/12/11 191 740 +2 233
2017/12/10 189 507 +8 709
2017/12/09 180 798 +1 548
2017/12/08 179 250 +2 276
2017/12/07 176 974 +112
2017/12/06 176 862 +7 775
2017/12/05 169 087 +414
2017/12/04 168 673 +8 589
2017/12/03 160 084 -2 448
2017/12/02 162 532 -972
2017/12/01 163 504 +1 367
2017/11/30 162 137 +2 624
2017/11/29 159 513 +4 702
2017/11/28 154 811 +193
2017/11/27 154 618 -3 296
2017/11/26 157 914 -1 237
2017/11/25 159 151 -3 436
2017/11/24 162 587 +4 905
2017/11/23 157 682 -5 234
2017/11/22 162 916 +12 846
2017/11/21 150 070 +3 962
2017/11/20 146 108 +744
2017/11/19 145 364 -988
2017/11/18 146 352 +1 507
2017/11/17 144 845 +1 960
2017/11/16 142 885 -7 382
2017/11/15 150 267 +3 846
2017/11/14 146 421 +3 410
2017/11/13 143 011 +1 343
2017/11/12 141 668 -1 907
2017/11/11 143 575 -1 186
2017/11/10 144 761 -2 875
2017/11/09 147 636 +537
2017/11/08 147 099 -957
2017/11/07 148 056 +6 071
2017/11/06 141 985 +2 487
2017/11/05 139 498 +233
2017/11/04 139 265 -4 746
2017/11/03 144 011 +4 075
2017/11/02 139 936 +1 250
2017/11/01 138 686 +2 284
2017/10/31 136 402 -4 865
2017/10/30 141 267 +923
2017/10/29 140 344 -5 338
2017/10/28 145 682 +118
2017/10/27 145 564 -334
2017/10/26 145 898 +1 327
2017/10/25 144 571 -588
2017/10/24 145 159 +1 086
2017/10/23 144 073 +1 041
2017/10/22 143 032 -10 632
2017/10/21 153 664 -5 189
2017/10/20 158 853 +935
2017/10/19 157 918 +134
2017/10/18 157 784 +2 693
2017/10/17 155 091

WIDGET FOR YOUR SITE

DOMAINS WITH THE NEAREST RANK

Domain Rank
zanox-my.sharepoint.com 228 815
megafileupload.com 228 816
fueled.com 228 817
phimyz.com 228 818
zsurpubi.hu 228 819
irresistivel.com.br 228 820
mriguel.net 228 821
lanjutkan.xyz 228 822
salina.com 228 823
verkehrsrundschau.de 228 824
icicode.fr 228 825

DOMAINS WITH THE NEAREST RANK BY TLD .com.br

Domain Rank
manausalerta.com.br 228 145
justapprove.com.br 228 443
resultadosdobichotemporeal.com.br 228 508
drogariaminasbrasil.com.br 228 713
revistalofficiel.com.br 228 754
irresistivel.com.br 228 820
portalconscienciapolitica.com.br 228 832
beard.com.br 228 947
premioesportsbrasil.com.br 229 144
rafaelazda.com.br 229 170
geragera.com.br 229 253